sensor_id;sensor_type;location;lat;lon;timestamp;pressure;altitude;pressure_sealevel;temperature;humidity
141;BME280;65;48.778;9.160;2023-04-28T00:01:49;98341.28;;;11.57;82.63
141;BME280;65;48.778;9.160;2023-04-28T00:04:35;98340.44;;;11.57;83.32
141;BME280;65;48.778;9.160;2023-04-28T00:07:20;98347.50;;;11.56;83.06
141;BME280;65;48.778;9.160;2023-04-28T00:10:07;98333.34;;;11.57;83.16
141;BME280;65;48.778;9.160;2023-04-28T00:12:52;98327.09;;;11.58;82.89
141;BME280;65;48.778;9.160;2023-04-28T00:15:38;98327.84;;;11.60;83.08
141;BME280;65;48.778;9.160;2023-04-28T00:18:24;98323.28;;;11.62;83.62
141;BME280;65;48.778;9.160;2023-04-28T00:21:10;98326.78;;;11.63;84.31
141;BME280;65;48.778;9.160;2023-04-28T00:23:55;98328.78;;;11.59;85.00
141;BME280;65;48.778;9.160;2023-04-28T00:26:41;98320.00;;;11.59;83.87
141;BME280;65;48.778;9.160;2023-04-28T00:29:27;98314.59;;;11.60;85.78
141;BME280;65;48.778;9.160;2023-04-28T00:35:40;98318.09;;;11.61;84.76
141;BME280;65;48.778;9.160;2023-04-28T00:38:26;98315.44;;;11.61;86.02
141;BME280;65;48.778;9.160;2023-04-28T00:41:12;98304.16;;;11.71;82.20
141;BME280;65;48.778;9.160;2023-04-28T00:43:58;98304.16;;;11.71;82.67
141;BME280;65;48.778;9.160;2023-04-28T00:46:44;98306.69;;;11.73;83.50
141;BME280;65;48.778;9.160;2023-04-28T00:49:30;98298.66;;;11.75;83.12
141;BME280;65;48.778;9.160;2023-04-28T00:52:18;98300.75;;;11.69;84.15
141;BME280;65;48.778;9.160;2023-04-28T00:55:04;98309.75;;;11.67;84.54
141;BME280;65;48.778;9.160;2023-04-28T00:57:50;98301.06;;;11.65;85.09
141;BME280;65;48.778;9.160;2023-04-28T01:00:36;98300.22;;;11.64;85.70
141;BME280;65;48.778;9.160;2023-04-28T01:03:22;98294.16;;;11.62;84.68
141;BME280;65;48.778;9.160;2023-04-28T01:06:08;98290.03;;;11.58;85.83
141;BME280;65;48.778;9.160;2023-04-28T01:08:55;98291.53;;;11.62;84.63
141;BME280;65;48.778;9.160;2023-04-28T01:11:41;98293.13;;;11.65;84.77
141;BME280;65;48.778;9.160;2023-04-28T01:14:27;98289.63;;;11.64;83.91
141;BME280;65;48.778;9.160;2023-04-28T01:17:14;98293.75;;;11.68;84.56
141;BME280;65;48.778;9.160;2023-04-28T01:19:59;98279.28;;;11.74;84.31
141;BME280;65;48.778;9.160;2023-04-28T01:22:45;98272.84;;;11.78;85.22
141;BME280;65;48.778;9.160;2023-04-28T01:25:31;98262.69;;;11.85;81.33
141;BME280;65;48.778;9.160;2023-04-28T01:28:16;98268.31;;;11.93;82.63
141;BME280;65;48.778;9.160;2023-04-28T01:31:02;98266.41;;;11.95;81.82
141;BME280;65;48.778;9.160;2023-04-28T01:33:53;98262.81;;;11.96;81.77
141;BME280;65;48.778;9.160;2023-04-28T01:36:39;98263.13;;;11.91;83.56
141;BME280;65;48.778;9.160;2023-04-28T01:39:24;98243.94;;;11.88;82.44
141;BME280;65;48.778;9.160;2023-04-28T01:42:10;98253.50;;;11.90;81.86
141;BME280;65;48.778;9.160;2023-04-28T01:44:56;98252.13;;;11.97;81.57
141;BME280;65;48.778;9.160;2023-04-28T01:47:42;98258.16;;;11.99;80.96
141;BME280;65;48.778;9.160;2023-04-28T01:50:27;98249.06;;;12.03;81.37
141;BME280;65;48.778;9.160;2023-04-28T01:53:13;98235.50;;;12.08;80.97
141;BME280;65;48.778;9.160;2023-04-28T01:56:17;98239.94;;;12.08;82.06
141;BME280;65;48.778;9.160;2023-04-28T01:59:03;98250.13;;;12.01;82.66
141;BME280;65;48.778;9.160;2023-04-28T02:01:49;98234.22;;;12.01;83.07
141;BME280;65;48.778;9.160;2023-04-28T02:04:36;98234.44;;;11.98;81.82
141;BME280;65;48.778;9.160;2023-04-28T02:07:22;98238.97;;;11.96;81.91
141;BME280;65;48.778;9.160;2023-04-28T02:10:12;98222.88;;;11.99;81.81
141;BME280;65;48.778;9.160;2023-04-28T02:12:58;98220.66;;;12.06;81.95
141;BME280;65;48.778;9.160;2023-04-28T02:15:43;98220.69;;;12.18;78.32
141;BME280;65;48.778;9.160;2023-04-28T02:18:29;98211.56;;;12.22;79.37
141;BME280;65;48.778;9.160;2023-04-28T02:21:15;98217.72;;;12.23;80.51
141;BME280;65;48.778;9.160;2023-04-28T02:24:01;98229.59;;;12.30;79.33
141;BME280;65;48.778;9.160;2023-04-28T02:26:47;98226.81;;;12.31;77.70
141;BME280;65;48.778;9.160;2023-04-28T02:29:33;98214.72;;;12.40;78.94
141;BME280;65;48.778;9.160;2023-04-28T02:32:19;98216.72;;;12.49;77.34
141;BME280;65;48.778;9.160;2023-04-28T02:35:05;98211.19;;;12.65;75.12
141;BME280;65;48.778;9.160;2023-04-28T02:37:51;98202.06;;;12.69;75.31
141;BME280;65;48.778;9.160;2023-04-28T02:40:37;98197.31;;;12.74;74.97
141;BME280;65;48.778;9.160;2023-04-28T02:43:22;98206.09;;;12.75;74.06
141;BME280;65;48.778;9.160;2023-04-28T02:46:08;98205.16;;;12.76;74.38
141;BME280;65;48.778;9.160;2023-04-28T02:48:54;98217.63;;;12.86;74.58
141;BME280;65;48.778;9.160;2023-04-28T02:51:40;98213.72;;;12.79;77.44
141;BME280;65;48.778;9.160;2023-04-28T02:54:26;98211.06;;;12.79;76.86
141;BME280;65;48.778;9.160;2023-04-28T02:57:16;98208.72;;;12.87;75.54
141;BME280;65;48.778;9.160;2023-04-28T03:00:02;98220.84;;;12.79;78.52
141;BME280;65;48.778;9.160;2023-04-28T03:02:49;98222.75;;;12.77;77.80
141;BME280;65;48.778;9.160;2023-04-28T03:05:35;98221.78;;;12.65;80.58
141;BME280;65;48.778;9.160;2023-04-28T03:08:21;98220.75;;;12.55;80.43
141;BME280;65;48.778;9.160;2023-04-28T03:11:07;98220.66;;;12.44;85.24
141;BME280;65;48.778;9.160;2023-04-28T03:13:52;98209.22;;;12.30;86.46
141;BME280;65;48.778;9.160;2023-04-28T03:16:38;98210.31;;;12.15;88.73
141;BME280;65;48.778;9.160;2023-04-28T03:19:24;98217.16;;;12.05;91.14
141;BME280;65;48.778;9.160;2023-04-28T03:22:10;98212.38;;;11.97;92.08
141;BME280;65;48.778;9.160;2023-04-28T03:24:56;98200.31;;;11.93;92.63
141;BME280;65;48.778;9.160;2023-04-28T03:27:42;98211.13;;;11.90;93.27
141;BME280;65;48.778;9.160;2023-04-28T03:30:27;98213.03;;;11.88;93.90
141;BME280;65;48.778;9.160;2023-04-28T03:33:13;98203.28;;;11.89;93.16
141;BME280;65;48.778;9.160;2023-04-28T03:35:59;98195.66;;;11.97;94.01
141;BME280;65;48.778;9.160;2023-04-28T03:38:45;98198.19;;;11.98;96.48
141;BME280;65;48.778;9.160;2023-04-28T03:41:30;98205.72;;;11.92;97.10
141;BME280;65;48.778;9.160;2023-04-28T03:44:16;98208.16;;;11.82;100.00
141;BME280;65;48.778;9.160;2023-04-28T03:47:02;98209.59;;;11.73;100.00
141;BME280;65;48.778;9.160;2023-04-28T03:49:47;98200.16;;;11.69;100.00
141;BME280;65;48.778;9.160;2023-04-28T03:52:33;98195.16;;;11.65;100.00
141;BME280;65;48.778;9.160;2023-04-28T03:55:19;98193.38;;;11.65;100.00
141;BME280;65;48.778;9.160;2023-04-28T03:58:05;98191.69;;;11.64;99.79
141;BME280;65;48.778;9.160;2023-04-28T04:00:50;98192.31;;;11.68;95.97
141;BME280;65;48.778;9.160;2023-04-28T04:03:36;98186.06;;;11.69;96.52
141;BME280;65;48.778;9.160;2023-04-28T04:06:22;98187.75;;;11.70;95.91
141;BME280;65;48.778;9.160;2023-04-28T04:09:08;98185.84;;;11.72;96.53
141;BME280;65;48.778;9.160;2023-04-28T04:11:54;98183.84;;;11.76;94.11
141;BME280;65;48.778;9.160;2023-04-28T04:14:40;98175.72;;;11.79;96.19
141;BME280;65;48.778;9.160;2023-04-28T04:17:25;98176.69;;;11.78;95.91
141;BME280;65;48.778;9.160;2023-04-28T04:20:11;98181.03;;;11.79;98.57
141;BME280;65;48.778;9.160;2023-04-28T04:22:57;98175.72;;;11.79;98.14
141;BME280;65;48.778;9.160;2023-04-28T04:25:43;98174.03;;;11.78;98.74
141;BME280;65;48.778;9.160;2023-04-28T04:28:29;98172.88;;;11.82;98.89
141;BME280;65;48.778;9.160;2023-04-28T04:31:14;98165.78;;;11.82;98.10
141;BME280;65;48.778;9.160;2023-04-28T04:34:00;98174.47;;;11.84;99.55
141;BME280;65;48.778;9.160;2023-04-28T04:36:46;98175.31;;;11.85;99.63
141;BME280;65;48.778;9.160;2023-04-28T04:39:32;98180.59;;;11.85;100.00
141;BME280;65;48.778;9.160;2023-04-28T04:42:30;98169.16;;;11.84;100.00
141;BME280;65;48.778;9.160;2023-04-28T04:45:15;98170.75;;;11.87;100.00
141;BME280;65;48.778;9.160;2023-04-28T04:48:02;98179.44;;;11.89;100.00
141;BME280;65;48.778;9.160;2023-04-28T04:50:48;98177.63;;;11.89;100.00
141;BME280;65;48.778;9.160;2023-04-28T04:53:33;98170.44;;;11.91;100.00
141;BME280;65;48.778;9.160;2023-04-28T04:56:19;98165.13;;;11.91;100.00
141;BME280;65;48.778;9.160;2023-04-28T04:59:05;98165.13;;;11.91;100.00
141;BME280;65;48.778;9.160;2023-04-28T05:01:51;98171.50;;;11.89;100.00
141;BME280;65;48.778;9.160;2023-04-28T05:04:37;98160.69;;;11.92;100.00
141;BME280;65;48.778;9.160;2023-04-28T05:07:24;98166.09;;;12.03;100.00
141;BME280;65;48.778;9.160;2023-04-28T05:10:11;98164.59;;;12.12;100.00
141;BME280;65;48.778;9.160;2023-04-28T05:12:56;98172.88;;;12.07;100.00
141;BME280;65;48.778;9.160;2023-04-28T05:15:42;98173.00;;;12.18;100.00
141;BME280;65;48.778;9.160;2023-04-28T05:18:28;98171.94;;;12.21;100.00
141;BME280;65;48.778;9.160;2023-04-28T05:21:13;98172.44;;;12.13;100.00
141;BME280;65;48.778;9.160;2023-04-28T05:23:59;98174.56;;;12.08;100.00
141;BME280;65;48.778;9.160;2023-04-28T05:26:45;98179.00;;;12.08;100.00
141;BME280;65;48.778;9.160;2023-04-28T05:29:30;98178.91;;;12.09;100.00
141;BME280;65;48.778;9.160;2023-04-28T05:32:16;98175.31;;;11.97;100.00
141;BME280;65;48.778;9.160;2023-04-28T05:35:02;98181.25;;;11.88;100.00
141;BME280;65;48.778;9.160;2023-04-28T05:41:30;98179.03;;;11.95;100.00
141;BME280;65;48.778;9.160;2023-04-28T05:44:16;98179.75;;;11.97;100.00
141;BME280;65;48.778;9.160;2023-04-28T05:47:02;98178.91;;;11.96;100.00
141;BME280;65;48.778;9.160;2023-04-28T05:49:48;98176.47;;;11.93;100.00
141;BME280;65;48.778;9.160;2023-04-28T05:52:36;98174.25;;;12.00;100.00
141;BME280;65;48.778;9.160;2023-04-28T05:55:22;98170.44;;;11.91;100.00
141;BME280;65;48.778;9.160;2023-04-28T05:58:08;98173.72;;;11.95;100.00
141;BME280;65;48.778;9.160;2023-04-28T06:01:13;98163.22;;;11.93;100.00
141;BME280;65;48.778;9.160;2023-04-28T06:04:17;98163.97;;;11.95;100.00
141;BME280;65;48.778;9.160;2023-04-28T06:07:26;98165.34;;;12.01;100.00
141;BME280;65;48.778;9.160;2023-04-28T06:10:31;98169.91;;;11.99;100.00
141;BME280;65;48.778;9.160;2023-04-28T06:13:37;98165.88;;;12.06;100.00
141;BME280;65;48.778;9.160;2023-04-28T06:16:44;98160.56;;;12.06;100.00
141;BME280;65;48.778;9.160;2023-04-28T06:35:16;98159.19;;;12.13;100.00
141;BME280;65;48.778;9.160;2023-04-28T06:38:02;98148.19;;;12.19;100.00
141;BME280;65;48.778;9.160;2023-04-28T06:40:49;98151.69;;;12.20;100.00
141;BME280;65;48.778;9.160;2023-04-28T06:43:34;98148.28;;;12.30;100.00
141;BME280;65;48.778;9.160;2023-04-28T06:46:20;98152.94;;;12.40;100.00
141;BME280;65;48.778;9.160;2023-04-28T06:49:06;98147.47;;;12.54;100.00
141;BME280;65;48.778;9.160;2023-04-28T06:51:58;98144.31;;;12.49;100.00
141;BME280;65;48.778;9.160;2023-04-28T06:54:45;98146.22;;;12.47;100.00
141;BME280;65;48.778;9.160;2023-04-28T06:57:33;98146.84;;;12.50;100.00
141;BME280;65;48.778;9.160;2023-04-28T07:00:18;98144.06;;;12.64;100.00
141;BME280;65;48.778;9.160;2023-04-28T07:03:04;98138.88;;;12.63;100.00
141;BME280;65;48.778;9.160;2023-04-28T07:05:51;98140.03;;;12.59;100.00
141;BME280;65;48.778;9.160;2023-04-28T07:08:37;98133.13;;;12.69;100.00
141;BME280;65;48.778;9.160;2023-04-28T07:11:23;98134.16;;;12.79;100.00
141;BME280;65;48.778;9.160;2023-04-28T07:14:09;98134.22;;;12.90;100.00
141;BME280;65;48.778;9.160;2023-04-28T07:16:55;98128.84;;;13.03;100.00
141;BME280;65;48.778;9.160;2023-04-28T07:19:41;98125.41;;;13.14;100.00
141;BME280;65;48.778;9.160;2023-04-28T07:22:26;98121.16;;;13.11;100.00
141;BME280;65;48.778;9.160;2023-04-28T07:28:44;98118.16;;;13.16;100.00
141;BME280;65;48.778;9.160;2023-04-28T07:31:30;98117.09;;;13.31;100.00
141;BME280;65;48.778;9.160;2023-04-28T07:34:16;98112.94;;;13.27;100.00
141;BME280;65;48.778;9.160;2023-04-28T07:37:02;98118.56;;;13.46;100.00
141;BME280;65;48.778;9.160;2023-04-28T07:39:48;98114.47;;;13.53;100.00
141;BME280;65;48.778;9.160;2023-04-28T07:42:34;98116.91;;;13.68;100.00
141;BME280;65;48.778;9.160;2023-04-28T07:45:20;98117.66;;;13.70;100.00
141;BME280;65;48.778;9.160;2023-04-28T07:48:05;98115.22;;;13.55;100.00
141;BME280;65;48.778;9.160;2023-04-28T07:50:52;98103.28;;;13.61;100.00
141;BME280;65;48.778;9.160;2023-04-28T07:53:38;98108.94;;;13.56;100.00
141;BME280;65;48.778;9.160;2023-04-28T07:56:23;98104.56;;;13.44;100.00
141;BME280;65;48.778;9.160;2023-04-28T07:59:10;98112.72;;;13.30;100.00
141;BME280;65;48.778;9.160;2023-04-28T08:01:56;98130.50;;;13.17;100.00
141;BME280;65;48.778;9.160;2023-04-28T08:04:41;98126.31;;;13.02;100.00
141;BME280;65;48.778;9.160;2023-04-28T08:07:28;98128.91;;;12.90;100.00
141;BME280;65;48.778;9.160;2023-04-28T08:10:14;98134.06;;;12.81;100.00
141;BME280;65;48.778;9.160;2023-04-28T08:13:00;98137.47;;;12.70;100.00
141;BME280;65;48.778;9.160;2023-04-28T08:15:46;98144.47;;;12.71;100.00
141;BME280;65;48.778;9.160;2023-04-28T08:18:32;98152.94;;;12.76;100.00
141;BME280;65;48.778;9.160;2023-04-28T08:21:18;98146.13;;;12.85;100.00
141;BME280;65;48.778;9.160;2023-04-28T08:24:04;98151.44;;;12.85;100.00
141;BME280;65;48.778;9.160;2023-04-28T08:26:50;98166.16;;;12.89;100.00
141;BME280;65;48.778;9.160;2023-04-28T08:29:36;98168.59;;;12.92;100.00
141;BME280;65;48.778;9.160;2023-04-28T08:32:21;98180.06;;;12.92;100.00
141;BME280;65;48.778;9.160;2023-04-28T08:35:08;98188.13;;;12.91;100.00
141;BME280;65;48.778;9.160;2023-04-28T08:37:55;98183.66;;;12.91;100.00
141;BME280;65;48.778;9.160;2023-04-28T08:40:41;98187.72;;;12.84;100.00
141;BME280;65;48.778;9.160;2023-04-28T08:43:27;98186.97;;;12.82;100.00
141;BME280;65;48.778;9.160;2023-04-28T08:46:15;98185.41;;;12.80;100.00
141;BME280;65;48.778;9.160;2023-04-28T08:49:04;98190.25;;;12.86;100.00
141;BME280;65;48.778;9.160;2023-04-28T08:51:58;98197.47;;;12.84;100.00
141;BME280;65;48.778;9.160;2023-04-28T08:54:46;98187.09;;;12.81;100.00
141;BME280;65;48.778;9.160;2023-04-28T08:57:48;98205.31;;;12.85;100.00
141;BME280;65;48.778;9.160;2023-04-28T09:00:36;98212.63;;;12.94;100.00
141;BME280;65;48.778;9.160;2023-04-28T09:03:22;98205.94;;;12.89;100.00
141;BME280;65;48.778;9.160;2023-04-28T09:06:08;98212.31;;;12.86;100.00
141;BME280;65;48.778;9.160;2023-04-28T09:08:54;98202.91;;;12.82;100.00
141;BME280;65;48.778;9.160;2023-04-28T09:11:53;98213.00;;;12.77;100.00
141;BME280;65;48.778;9.160;2023-04-28T09:14:40;98209.94;;;12.58;100.00
141;BME280;65;48.778;9.160;2023-04-28T09:17:25;98205.41;;;12.47;100.00
141;BME280;65;48.778;9.160;2023-04-28T09:20:22;98201.97;;;12.58;100.00
141;BME280;65;48.778;9.160;2023-04-28T09:23:16;98219.25;;;12.76;100.00
141;BME280;65;48.778;9.160;2023-04-28T09:26:04;98211.16;;;12.90;100.00
141;BME280;65;48.778;9.160;2023-04-28T09:28:50;98217.25;;;13.04;100.00
141;BME280;65;48.778;9.160;2023-04-28T09:31:41;98219.09;;;13.27;100.00
141;BME280;65;48.778;9.160;2023-04-28T09:34:41;98219.84;;;13.53;100.00
141;BME280;65;48.778;9.160;2023-04-28T09:37:30;98207.75;;;13.84;100.00
141;BME280;65;48.778;9.160;2023-04-28T09:40:16;98206.63;;;13.75;100.00
141;BME280;65;48.778;9.160;2023-04-28T09:43:02;98200.94;;;14.04;100.00
141;BME280;65;48.778;9.160;2023-04-28T09:45:48;98204.09;;;14.31;100.00
141;BME280;65;48.778;9.160;2023-04-28T09:48:43;98205.00;;;14.54;100.00
141;BME280;65;48.778;9.160;2023-04-28T09:51:29;98204.47;;;14.38;100.00
141;BME280;65;48.778;9.160;2023-04-28T09:54:15;98194.59;;;14.73;100.00
141;BME280;65;48.778;9.160;2023-04-28T09:57:01;98203.97;;;15.11;100.00
141;BME280;65;48.778;9.160;2023-04-28T09:59:52;98197.00;;;15.74;100.00
141;BME280;65;48.778;9.160;2023-04-28T10:02:38;98187.81;;;16.60;100.00
141;BME280;65;48.778;9.160;2023-04-28T10:05:24;98192.66;;;17.16;100.00
141;BME280;65;48.778;9.160;2023-04-28T10:08:09;98181.69;;;18.25;100.00
141;BME280;65;48.778;9.160;2023-04-28T10:10:56;98182.28;;;18.09;100.00
141;BME280;65;48.778;9.160;2023-04-28T10:13:43;98187.63;;;17.61;100.00
141;BME280;65;48.778;9.160;2023-04-28T10:16:30;98189.63;;;17.39;100.00
141;BME280;65;48.778;9.160;2023-04-28T10:19:16;98189.47;;;17.60;100.00
141;BME280;65;48.778;9.160;2023-04-28T10:25:27;98176.63;;;18.22;100.00
141;BME280;65;48.778;9.160;2023-04-28T10:28:15;98173.81;;;18.14;100.00
141;BME280;65;48.778;9.160;2023-04-28T10:31:11;98172.56;;;18.64;100.00
141;BME280;65;48.778;9.160;2023-04-28T10:34:20;98180.22;;;19.32;100.00
141;BME280;65;48.778;9.160;2023-04-28T10:37:06;98174.50;;;18.72;100.00
141;BME280;65;48.778;9.160;2023-04-28T10:40:30;98181.84;;;18.14;100.00
141;BME280;65;48.778;9.160;2023-04-28T10:46:13;98181.03;;;18.04;100.00
141;BME280;65;48.778;9.160;2023-04-28T10:48:59;98183.13;;;18.10;100.00
141;BME280;65;48.778;9.160;2023-04-28T10:51:46;98184.53;;;18.14;100.00
141;BME280;65;48.778;9.160;2023-04-28T10:54:31;98183.81;;;18.12;100.00
141;BME280;65;48.778;9.160;2023-04-28T10:57:17;98188.50;;;18.00;100.00
141;BME280;65;48.778;9.160;2023-04-28T11:00:26;98183.72;;;18.04;100.00
141;BME280;65;48.778;9.160;2023-04-28T11:06:37;98183.13;;;18.10;100.00
141;BME280;65;48.778;9.160;2023-04-28T11:12:32;98186.25;;;19.16;100.00
141;BME280;65;48.778;9.160;2023-04-28T11:15:20;98182.81;;;19.24;100.00
141;BME280;65;48.778;9.160;2023-04-28T11:18:16;98183.91;;;18.29;100.00
141;BME280;65;48.778;9.160;2023-04-28T11:21:06;98184.53;;;18.14;100.00
141;BME280;65;48.778;9.160;2023-04-28T11:23:53;98177.72;;;18.29;100.00
141;BME280;65;48.778;9.160;2023-04-28T11:26:39;98180.63;;;18.55;100.00
141;BME280;65;48.778;9.160;2023-04-28T11:32:28;98179.44;;;18.94;100.00
141;BME280;65;48.778;9.160;2023-04-28T11:35:14;98179.00;;;19.26;96.83
141;BME280;65;48.778;9.160;2023-04-28T11:38:01;98172.66;;;19.81;92.66
141;BME280;65;48.778;9.160;2023-04-28T11:40:56;98168.69;;;20.11;87.32
141;BME280;65;48.778;9.160;2023-04-28T11:43:42;98168.38;;;20.14;85.28
141;BME280;65;48.778;9.160;2023-04-28T11:46:27;98169.09;;;19.98;87.31
141;BME280;65;48.778;9.160;2023-04-28T11:49:13;98164.09;;;19.77;86.07
141;BME280;65;48.778;9.160;2023-04-28T11:52:06;98164.16;;;20.11;88.37
141;BME280;65;48.778;9.160;2023-04-28T11:54:57;98161.84;;;20.68;87.66
141;BME280;65;48.778;9.160;2023-04-28T11:57:44;98160.50;;;21.06;80.58
141;BME280;65;48.778;9.160;2023-04-28T12:00:30;98166.53;;;21.67;76.70
141;BME280;65;48.778;9.160;2023-04-28T12:03:16;98161.13;;;20.92;78.42
141;BME280;65;48.778;9.160;2023-04-28T12:06:01;98171.16;;;20.82;76.07
141;BME280;65;48.778;9.160;2023-04-28T12:08:48;98166.06;;;20.19;76.36
141;BME280;65;48.778;9.160;2023-04-28T12:11:33;98174.97;;;19.76;79.13
141;BME280;65;48.778;9.160;2023-04-28T12:14:19;98160.94;;;19.64;81.81
141;BME280;65;48.778;9.160;2023-04-28T12:17:05;98162.41;;;19.58;86.54
141;BME280;65;48.778;9.160;2023-04-28T12:19:52;98158.28;;;20.08;78.80
141;BME280;65;48.778;9.160;2023-04-28T12:22:49;98156.47;;;20.16;78.74
141;BME280;65;48.778;9.160;2023-04-28T12:25:45;98148.22;;;20.10;78.77
141;BME280;65;48.778;9.160;2023-04-28T12:28:36;98154.47;;;19.93;79.34
141;BME280;65;48.778;9.160;2023-04-28T12:31:22;98157.97;;;20.11;79.32
141;BME280;65;48.778;9.160;2023-04-28T12:34:08;98163.00;;;20.14;75.34
141;BME280;65;48.778;9.160;2023-04-28T12:36:54;98169.75;;;19.92;81.27
141;BME280;65;48.778;9.160;2023-04-28T12:39:40;98167.53;;;19.87;76.69
141;BME280;65;48.778;9.160;2023-04-28T12:42:26;98168.81;;;19.30;81.75
141;BME280;65;48.778;9.160;2023-04-28T12:45:12;98177.16;;;19.00;83.59
141;BME280;65;48.778;9.160;2023-04-28T12:47:58;98176.31;;;18.99;86.49
141;BME280;65;48.778;9.160;2023-04-28T12:50:44;98166.94;;;18.58;90.60
141;BME280;65;48.778;9.160;2023-04-28T12:53:30;98176.25;;;18.44;95.75
141;BME280;65;48.778;9.160;2023-04-28T12:56:16;98174.13;;;18.57;95.50
141;BME280;65;48.778;9.160;2023-04-28T12:59:02;98170.88;;;18.63;97.66
141;BME280;65;48.778;9.160;2023-04-28T13:01:48;98174.81;;;18.69;96.97
141;BME280;65;48.778;9.160;2023-04-28T13:04:34;98173.91;;;18.31;100.00
141;BME280;65;48.778;9.160;2023-04-28T13:07:21;98166.53;;;18.06;100.00
141;BME280;65;48.778;9.160;2023-04-28T13:10:07;98143.03;;;18.00;100.00
141;BME280;65;48.778;9.160;2023-04-28T13:12:53;98139.13;;;18.31;100.00
141;BME280;65;48.778;9.160;2023-04-28T13:15:39;98123.94;;;18.59;100.00
141;BME280;65;48.778;9.160;2023-04-28T13:18:25;98126.59;;;18.69;100.00
141;BME280;65;48.778;9.160;2023-04-28T13:21:11;98139.19;;;18.86;100.00
141;BME280;65;48.778;9.160;2023-04-28T13:23:57;98144.63;;;18.94;94.32
141;BME280;65;48.778;9.160;2023-04-28T13:26:43;98137.19;;;18.88;97.73
141;BME280;65;48.778;9.160;2023-04-28T13:29:30;98141.13;;;18.94;95.35
141;BME280;65;48.778;9.160;2023-04-28T13:32:16;98144.81;;;18.66;95.41
141;BME280;65;48.778;9.160;2023-04-28T13:35:02;98146.53;;;18.10;98.37
141;BME280;65;48.778;9.160;2023-04-28T13:37:48;98146.28;;;17.75;100.00
141;BME280;65;48.778;9.160;2023-04-28T13:40:34;98141.22;;;17.62;100.00
141;BME280;65;48.778;9.160;2023-04-28T13:43:20;98149.91;;;17.16;100.00
141;BME280;65;48.778;9.160;2023-04-28T13:46:06;98152.72;;;16.95;100.00
141;BME280;65;48.778;9.160;2023-04-28T13:48:52;98160.72;;;16.64;100.00
141;BME280;65;48.778;9.160;2023-04-28T13:51:38;98148.19;;;16.55;100.00
141;BME280;65;48.778;9.160;2023-04-28T13:54:24;98140.09;;;16.26;100.00
141;BME280;65;48.778;9.160;2023-04-28T13:57:10;98144.84;;;16.02;100.00
141;BME280;65;48.778;9.160;2023-04-28T13:59:57;98145.25;;;15.97;100.00
141;BME280;65;48.778;9.160;2023-04-28T14:02:43;98144.88;;;15.81;100.00
141;BME280;65;48.778;9.160;2023-04-28T14:05:29;98134.03;;;15.73;100.00
141;BME280;65;48.778;9.160;2023-04-28T14:08:16;98146.06;;;15.67;100.00
141;BME280;65;48.778;9.160;2023-04-28T14:11:02;98142.81;;;15.64;100.00
141;BME280;65;48.778;9.160;2023-04-28T14:13:48;98135.78;;;15.51;100.00
141;BME280;65;48.778;9.160;2023-04-28T14:16:34;98139.22;;;15.42;100.00
141;BME280;65;48.778;9.160;2023-04-28T14:19:20;98143.84;;;14.97;100.00
141;BME280;65;48.778;9.160;2023-04-28T14:22:05;98151.00;;;14.97;100.00
141;BME280;65;48.778;9.160;2023-04-28T14:24:51;98149.81;;;14.90;100.00
141;BME280;65;48.778;9.160;2023-04-28T14:27:37;98129.50;;;14.88;100.00
141;BME280;65;48.778;9.160;2023-04-28T14:30:24;98133.97;;;14.88;100.00
141;BME280;65;48.778;9.160;2023-04-28T14:33:11;98124.44;;;15.17;100.00
141;BME280;65;48.778;9.160;2023-04-28T14:35:56;98116.50;;;15.38;100.00
141;BME280;65;48.778;9.160;2023-04-28T14:38:42;98106.09;;;15.67;100.00
141;BME280;65;48.778;9.160;2023-04-28T14:41:28;98097.94;;;15.90;100.00
141;BME280;65;48.778;9.160;2023-04-28T14:44:14;98107.72;;;16.10;100.00
141;BME280;65;48.778;9.160;2023-04-28T14:47:01;98116.56;;;16.41;100.00
141;BME280;65;48.778;9.160;2023-04-28T14:49:46;98113.78;;;16.52;100.00
141;BME280;65;48.778;9.160;2023-04-28T14:52:33;98112.44;;;16.67;100.00
141;BME280;65;48.778;9.160;2023-04-28T14:55:19;98116.44;;;16.52;100.00
141;BME280;65;48.778;9.160;2023-04-28T14:58:05;98104.66;;;16.55;100.00
141;BME280;65;48.778;9.160;2023-04-28T15:00:50;98111.00;;;16.63;100.00
141;BME280;65;48.778;9.160;2023-04-28T15:03:37;98114.09;;;16.59;100.00
141;BME280;65;48.778;9.160;2023-04-28T15:06:23;98121.88;;;16.71;100.00
141;BME280;65;48.778;9.160;2023-04-28T15:09:09;98118.50;;;16.69;100.00
141;BME280;65;48.778;9.160;2023-04-28T15:11:56;98121.50;;;16.55;100.00
141;BME280;65;48.778;9.160;2023-04-28T15:14:42;98118.50;;;16.39;100.00
141;BME280;65;48.778;9.160;2023-04-28T15:17:27;98105.97;;;16.20;100.00
141;BME280;65;48.778;9.160;2023-04-28T15:20:13;98109.84;;;16.16;100.00
141;BME280;65;48.778;9.160;2023-04-28T15:22:59;98102.91;;;16.04;100.00
141;BME280;65;48.778;9.160;2023-04-28T15:25:45;98104.84;;;16.23;100.00
141;BME280;65;48.778;9.160;2023-04-28T15:28:31;98109.09;;;16.35;100.00
141;BME280;65;48.778;9.160;2023-04-28T15:31:17;98102.31;;;16.21;100.00
141;BME280;65;48.778;9.160;2023-04-28T15:34:03;98105.72;;;16.02;100.00
141;BME280;65;48.778;9.160;2023-04-28T15:36:51;98111.72;;;15.95;100.00
141;BME280;65;48.778;9.160;2023-04-28T15:39:39;98108.47;;;15.91;100.00
141;BME280;65;48.778;9.160;2023-04-28T15:42:25;98103.75;;;15.74;100.00
141;BME280;65;48.778;9.160;2023-04-28T15:45:15;98101.88;;;15.65;100.00
141;BME280;65;48.778;9.160;2023-04-28T15:48:01;98099.91;;;15.56;100.00
141;BME280;65;48.778;9.160;2023-04-28T15:50:46;98098.50;;;15.51;100.00
141;BME280;65;48.778;9.160;2023-04-28T15:54:00;98098.34;;;15.64;100.00
141;BME280;65;48.778;9.160;2023-04-28T15:56:45;98092.69;;;15.78;100.00
141;BME280;65;48.778;9.160;2023-04-28T15:59:31;98081.09;;;15.89;100.00
141;BME280;65;48.778;9.160;2023-04-28T16:02:19;98086.25;;;16.11;100.00
141;BME280;65;48.778;9.160;2023-04-28T16:05:06;98079.53;;;15.87;100.00
141;BME280;65;48.778;9.160;2023-04-28T16:07:51;98072.84;;;15.92;100.00
141;BME280;65;48.778;9.160;2023-04-28T16:10:39;98072.38;;;15.87;100.00
141;BME280;65;48.778;9.160;2023-04-28T16:13:26;98075.06;;;15.87;100.00
141;BME280;65;48.778;9.160;2023-04-28T16:16:17;98080.34;;;15.77;100.00
141;BME280;65;48.778;9.160;2023-04-28T16:19:02;98075.50;;;15.62;100.00
141;BME280;65;48.778;9.160;2023-04-28T16:21:49;98075.19;;;15.44;100.00
141;BME280;65;48.778;9.160;2023-04-28T16:24:34;98066.53;;;15.31;100.00